LFLC/CFE METAR and TAF weather

Enter ICAO airport designator
Station Type Date Time Source
LFLC METAR 2022/12/04 12:30 UTC NOAA

LFLC 041230Z AUTO VRB02KT 9999 SCT007 SCT021 BKN039 03/03 Q1009 BECMG BKN012


Station Type Date Time Source
LFLC Decoded METAR 2022/12/04 12:30 UTC NOAA

Clermont-Ferrand, France (LFLC) 45-47N 003-10E 330M
Dec 04, 2022 - 07:30 AM EST / 2022.12.04 1230 UTC
Wind: Variable at 2 MPH (2 KT):0
Visibility: greater than 7 mile(s):0
Sky conditions: mostly cloudy
Temperature: 37 F (3 C)
Dew Point: 37 F (3 C)
Relative Humidity: 100%
Pressure (altimeter): 29.80 in. Hg (1009 hPa)
ob: LFLC 041230Z AUTO VRB02KT 9999 SCT007 SCT021 BKN039 03/03 Q1009 BECMG BKN012
cycle: 12

Station Type Date Time Source
LFLC TAF 2022/12/04 12:29 UTC NOAA

TAF
AMD LFLC 041225Z 0412/0512 VRB02KT 9999 BKN025
TEMPO 0412/0413 3000 RA BKN005 PROB40
TEMPO 0413/0419 BKN040
BECMG 0419/0421 3000 BR OVC005
TEMPO 0421/0512 0400 FG VV///

Example: see airport list